createdAt,value
2022-08-12T00:01:05.580Z,15.90
2022-08-12T00:02:56.680Z,15.90
2022-08-12T00:04:47.741Z,15.90
2022-08-12T00:06:39.974Z,15.80
2022-08-12T00:08:35.792Z,15.80
2022-08-12T00:10:28.247Z,15.80
2022-08-12T00:12:19.845Z,15.80
2022-08-12T00:14:10.704Z,15.70
2022-08-12T00:16:04.487Z,15.60
2022-08-12T00:17:55.625Z,15.60
2022-08-12T00:19:46.559Z,15.60
2022-08-12T00:21:39.136Z,15.50
2022-08-12T00:23:31.607Z,15.40
2022-08-12T00:26:05.483Z,15.40
2022-08-12T00:27:43.939Z,15.40
2022-08-12T00:29:35.488Z,15.40
2022-08-12T00:31:26.606Z,15.40
2022-08-12T00:33:17.541Z,15.40
2022-08-12T00:35:08.908Z,15.40
2022-08-12T00:37:13.343Z,15.40
2022-08-12T00:39:05.105Z,15.40
2022-08-12T00:40:58.698Z,15.30
2022-08-12T00:42:31.154Z,15.40
2022-08-12T00:44:06.287Z,15.40
2022-08-12T00:45:58.419Z,15.30
2022-08-12T00:47:34.276Z,15.30
2022-08-12T00:49:07.956Z,15.30
2022-08-12T00:50:42.893Z,15.30
2022-08-12T00:52:16.541Z,15.30
2022-08-12T00:53:48.744Z,15.30
2022-08-12T00:55:21.473Z,15.40
2022-08-12T00:57:02.599Z,15.40
2022-08-12T00:58:35.251Z,15.30
2022-08-12T01:00:14.816Z,15.30
2022-08-12T01:02:11.447Z,15.30
2022-08-12T01:03:59.678Z,15.30
2022-08-12T01:05:51.858Z,15.30
2022-08-12T01:07:46.278Z,15.30
2022-08-12T01:09:39.272Z,15.30
2022-08-12T01:11:29.303Z,15.20
2022-08-12T01:13:18.699Z,15.30
2022-08-12T01:14:54.469Z,15.20
2022-08-12T01:16:27.640Z,15.20
2022-08-12T01:18:00.075Z,15.20
2022-08-12T01:19:34.552Z,15.20
2022-08-12T01:21:09.397Z,15.20
2022-08-12T01:23:07.478Z,15.30
2022-08-12T01:25:06.993Z,15.30
2022-08-12T01:26:43.605Z,15.30
2022-08-12T01:28:20.347Z,15.30
2022-08-12T01:29:56.960Z,15.30
2022-08-12T01:31:30.646Z,15.30
2022-08-12T01:33:05.953Z,15.20
2022-08-12T01:34:40.077Z,15.30
2022-08-12T01:36:17.385Z,15.20
2022-08-12T01:38:04.395Z,15.30
2022-08-12T01:40:35.696Z,15.30
2022-08-12T01:41:53.942Z,15.30
2022-08-12T01:43:27.427Z,15.30
2022-08-12T01:45:01.939Z,15.30
2022-08-12T01:47:23.983Z,15.30
2022-08-12T01:49:02.427Z,15.40
2022-08-12T01:52:04.523Z,15.40
2022-08-12T01:53:17.817Z,15.40
2022-08-12T01:54:52.260Z,15.30
2022-08-12T01:56:30.092Z,15.30
2022-08-12T01:58:55.328Z,15.30
2022-08-12T02:00:54.697Z,15.30
2022-08-12T02:02:30.574Z,15.30
2022-08-12T02:04:50.491Z,15.30
2022-08-12T02:07:07.023Z,15.30
2022-08-12T02:09:18.783Z,15.30
2022-08-12T02:11:24.523Z,15.20
2022-08-12T02:13:49.038Z,15.20
2022-08-12T02:15:33.346Z,15.20
2022-08-12T02:17:55.598Z,15.20
2022-08-12T02:20:17.796Z,15.20
2022-08-12T02:22:11.584Z,15.20
2022-08-12T02:23:43.858Z,15.30
2022-08-12T02:25:38.109Z,15.20
2022-08-12T02:27:15.156Z,15.20
2022-08-12T02:28:48.780Z,15.20
2022-08-12T02:30:25.935Z,15.20
2022-08-12T02:32:11.449Z,15.20
2022-08-12T02:33:46.216Z,15.20
2022-08-12T02:35:25.339Z,15.20
2022-08-12T02:37:02.682Z,15.20
2022-08-12T02:38:37.893Z,15.20
2022-08-12T02:40:13.566Z,15.20
2022-08-12T02:41:48.787Z,15.20
2022-08-12T02:43:51.937Z,15.20
2022-08-12T02:45:46.347Z,15.20
2022-08-12T02:47:59.131Z,15.10
2022-08-12T02:49:25.570Z,15.10
2022-08-12T02:51:06.032Z,15.10
2022-08-12T02:52:38.974Z,15.10
2022-08-12T02:54:11.946Z,15.10
2022-08-12T02:55:45.743Z,15.10
2022-08-12T02:57:20.060Z,15.10
2022-08-12T02:58:53.740Z,15.10
2022-08-12T03:00:26.585Z,15.10
2022-08-12T03:02:03.729Z,15.10
2022-08-12T03:03:38.585Z,15.10
2022-08-12T03:05:17.671Z,15.10
2022-08-12T03:07:09.844Z,15.10
2022-08-12T03:08:43.502Z,15.10
2022-08-12T03:10:36.656Z,15.00
2022-08-12T03:12:16.278Z,14.90
2022-08-12T03:13:58.181Z,14.90
2022-08-12T03:15:31.325Z,14.80
2022-08-12T03:17:25.947Z,14.70
2022-08-12T03:18:58.784Z,14.70
2022-08-12T03:20:38.174Z,14.70
2022-08-12T03:22:14.707Z,14.60
2022-08-12T03:23:48.583Z,14.60
2022-08-12T03:25:27.369Z,14.60
2022-08-12T03:27:03.241Z,14.60
2022-08-12T03:28:51.943Z,14.60
2022-08-12T03:30:32.316Z,14.60
2022-08-12T03:32:06.111Z,14.50
2022-08-12T03:33:43.843Z,14.50
2022-08-12T03:35:41.153Z,14.50
2022-08-12T03:37:15.644Z,14.50
2022-08-12T03:39:10.980Z,14.50
2022-08-12T03:41:24.214Z,14.50
2022-08-12T03:43:16.200Z,14.50
2022-08-12T03:45:52.053Z,14.50
2022-08-12T03:47:52.489Z,14.60
2022-08-12T03:49:43.892Z,14.70
2022-08-12T03:51:34.599Z,14.70
2022-08-12T03:53:27.243Z,14.80
2022-08-12T03:55:17.863Z,15.20
2022-08-12T03:57:08.558Z,15.50
2022-08-12T03:58:59.924Z,15.90
2022-08-12T04:00:36.545Z,16.20
2022-08-12T04:02:16.479Z,16.60
2022-08-12T04:03:53.498Z,16.80
2022-08-12T04:05:55.736Z,17.10
2022-08-12T04:07:19.033Z,17.30
2022-08-12T04:08:56.956Z,17.50
2022-08-12T04:10:50.540Z,17.80
2022-08-12T04:12:46.155Z,17.90
2022-08-12T04:14:20.727Z,18.10
2022-08-12T04:15:54.118Z,18.30
2022-08-12T04:17:28.032Z,18.50
2022-08-12T04:19:01.832Z,18.60
2022-08-12T04:20:34.671Z,18.80
2022-08-12T04:22:06.820Z,18.90
2022-08-12T04:23:47.660Z,19.10
2022-08-12T04:25:24.356Z,19.30
2022-08-12T04:26:56.873Z,19.50
2022-08-12T04:28:29.068Z,19.60
2022-08-12T04:30:30.138Z,19.90
2022-08-12T04:31:55.973Z,20.00
2022-08-12T04:33:28.575Z,20.00
2022-08-12T04:35:01.246Z,20.20
2022-08-12T04:36:35.597Z,20.30
2022-08-12T04:38:08.068Z,20.40
2022-08-12T04:39:40.725Z,20.60
2022-08-12T04:41:13.247Z,20.60
2022-08-12T04:42:45.730Z,20.60
2022-08-12T04:44:18.451Z,20.60
2022-08-12T04:45:51.751Z,20.60
2022-08-12T04:47:24.625Z,20.70
2022-08-12T04:48:57.531Z,20.80
2022-08-12T04:50:35.733Z,20.70
2022-08-12T04:52:09.996Z,20.70
2022-08-12T04:53:42.766Z,20.70
2022-08-12T04:55:17.148Z,20.70
2022-08-12T04:57:04.685Z,20.70
2022-08-12T04:58:38.839Z,20.80
2022-08-12T05:00:14.084Z,20.80
2022-08-12T05:01:53.604Z,21.00
2022-08-12T05:03:27.778Z,21.10
2022-08-12T05:05:02.896Z,21.20
2022-08-12T05:06:35.051Z,21.20
2022-08-12T05:08:17.029Z,21.20
2022-08-12T05:10:01.999Z,21.20
2022-08-12T05:11:36.723Z,21.10
2022-08-12T05:13:14.444Z,21.20
2022-08-12T05:14:46.915Z,21.40
2022-08-12T05:16:19.166Z,21.40
2022-08-12T05:18:19.663Z,21.60
2022-08-12T05:19:52.575Z,22.00
2022-08-12T05:21:29.474Z,22.20
2022-08-12T05:23:13.862Z,22.20
2022-08-12T05:24:47.698Z,22.00
2022-08-12T05:26:20.346Z,21.80
2022-08-12T05:27:57.814Z,21.70
2022-08-12T05:30:07.678Z,21.60
2022-08-12T05:31:47.440Z,21.50
2022-08-12T05:33:16.004Z,21.80
2022-08-12T05:34:49.168Z,21.90
2022-08-12T05:36:21.307Z,21.90
2022-08-12T05:38:13.727Z,22.00
2022-08-12T05:39:45.946Z,22.00
2022-08-12T05:41:21.185Z,22.10
2022-08-12T05:42:53.315Z,21.80
2022-08-12T05:44:25.749Z,21.60
2022-08-12T05:45:58.428Z,21.70
2022-08-12T05:47:53.076Z,22.20
2022-08-12T05:49:23.285Z,22.40
2022-08-12T05:50:56.740Z,22.40
2022-08-12T05:52:28.897Z,22.70
2022-08-12T05:54:01.104Z,22.80
2022-08-12T05:55:37.476Z,23.10
2022-08-12T05:57:11.608Z,23.30
2022-08-12T05:58:43.794Z,23.30
2022-08-12T06:00:21.845Z,23.20
2022-08-12T06:02:11.982Z,22.90
2022-08-12T06:03:45.983Z,23.10
2022-08-12T06:05:18.220Z,23.20
2022-08-12T06:06:53.392Z,23.50
2022-08-12T06:08:26.118Z,23.30
2022-08-12T06:09:58.447Z,23.40
2022-08-12T06:11:30.622Z,23.70
2022-08-12T06:13:05.557Z,23.90
2022-08-12T06:14:39.347Z,23.90
2022-08-12T06:16:20.867Z,23.70
2022-08-12T06:17:53.601Z,23.80
2022-08-12T06:19:25.819Z,23.90
2022-08-12T06:21:23.711Z,23.60
2022-08-12T06:22:55.961Z,23.80
2022-08-12T06:24:29.377Z,23.80
2022-08-12T06:26:02.233Z,23.60
2022-08-12T06:28:07.333Z,23.80
2022-08-12T06:30:07.959Z,23.40
2022-08-12T06:31:34.672Z,23.10
2022-08-12T06:33:21.984Z,23.00
2022-08-12T06:35:23.375Z,23.30
2022-08-12T06:36:48.763Z,23.30
2022-08-12T06:38:25.298Z,23.20
2022-08-12T06:40:01.638Z,23.40
2022-08-12T06:42:05.118Z,23.50
2022-08-12T06:44:05.915Z,23.60
2022-08-12T06:45:46.897Z,23.50
2022-08-12T06:47:19.783Z,23.60
2022-08-12T06:48:58.786Z,23.90
2022-08-12T06:50:31.199Z,24.10
2022-08-12T06:52:07.452Z,24.00
2022-08-12T06:53:39.761Z,24.20
2022-08-12T06:55:20.621Z,24.10
2022-08-12T06:58:06.943Z,24.20
2022-08-12T06:58:45.349Z,24.00
2022-08-12T07:00:32.462Z,24.00
2022-08-12T07:02:05.404Z,23.90
2022-08-12T07:03:38.402Z,23.50
2022-08-12T07:05:10.559Z,23.40
2022-08-12T07:06:44.813Z,23.00
2022-08-12T07:08:17.084Z,22.80
2022-08-12T07:10:00.008Z,22.50
2022-08-12T07:11:44.647Z,22.50
2022-08-12T07:13:25.147Z,22.40
2022-08-12T07:15:01.845Z,22.40
2022-08-12T07:16:52.481Z,22.50
2022-08-12T07:18:32.732Z,22.60
2022-08-12T07:20:29.661Z,22.50
2022-08-12T07:22:06.469Z,22.60
2022-08-12T07:23:41.847Z,22.70
2022-08-12T07:25:37.540Z,22.60
2022-08-12T07:27:13.386Z,22.60
2022-08-12T07:28:48.105Z,22.60
2022-08-12T07:30:20.325Z,22.70
2022-08-12T07:31:52.993Z,22.90
2022-08-12T07:33:29.183Z,23.10
2022-08-12T07:35:02.228Z,22.90
2022-08-12T07:36:35.392Z,22.90
2022-08-12T07:38:31.443Z,23.00
2022-08-12T07:40:04.651Z,22.90
2022-08-12T07:41:36.881Z,22.90
2022-08-12T07:43:09.119Z,22.90
2022-08-12T07:44:41.293Z,23.00
2022-08-12T07:46:20.546Z,22.80
2022-08-12T07:47:52.789Z,22.90
2022-08-12T07:49:28.071Z,23.00
2022-08-12T07:51:00.362Z,23.30
2022-08-12T07:52:42.155Z,23.30
2022-08-12T07:54:14.533Z,23.20
2022-08-12T07:55:47.838Z,23.20
2022-08-12T07:57:20.955Z,23.30
2022-08-12T07:58:54.338Z,23.40
2022-08-12T08:00:36.244Z,23.40
2022-08-12T08:02:09.998Z,23.60
2022-08-12T08:04:03.788Z,23.80
2022-08-12T08:05:39.209Z,24.00
2022-08-12T08:07:11.435Z,24.00
2022-08-12T08:08:43.576Z,24.00
2022-08-12T08:10:16.678Z,24.10
2022-08-12T08:12:08.347Z,24.10
2022-08-12T08:13:41.005Z,24.20
2022-08-12T08:15:15.091Z,24.50
2022-08-12T08:16:50.897Z,24.10
2022-08-12T08:18:26.813Z,24.40
2022-08-12T08:20:02.662Z,24.40
2022-08-12T08:21:36.807Z,24.20
2022-08-12T08:23:18.493Z,24.20
2022-08-12T08:24:57.640Z,24.20
2022-08-12T08:26:29.781Z,24.00
2022-08-12T08:28:11.245Z,24.00
2022-08-12T08:29:45.467Z,24.00
2022-08-12T08:31:18.738Z,23.90
2022-08-12T08:32:50.945Z,23.90
2022-08-12T08:34:49.149Z,23.80
2022-08-12T08:36:24.221Z,23.70
2022-08-12T08:38:12.826Z,23.50
2022-08-12T08:39:45.033Z,23.60
2022-08-12T08:42:16.363Z,23.70
2022-08-12T08:43:44.338Z,23.70
2022-08-12T08:45:17.720Z,23.40
2022-08-12T08:46:50.716Z,23.30
2022-08-12T08:48:24.543Z,23.40
2022-08-12T08:50:01.099Z,23.60
2022-08-12T08:51:33.841Z,24.00
2022-08-12T08:53:08.786Z,24.20
2022-08-12T08:54:41.094Z,24.50
2022-08-12T08:56:13.467Z,24.40
2022-08-12T08:57:51.716Z,24.40
2022-08-12T08:59:24.019Z,24.30
2022-08-12T09:00:56.480Z,24.20
2022-08-12T09:02:29.063Z,24.40
2022-08-12T09:05:12.942Z,24.30
2022-08-12T09:06:02.866Z,24.60
2022-08-12T09:07:51.438Z,24.50
2022-08-12T09:09:34.108Z,24.50
2022-08-12T09:12:10.957Z,24.50
2022-08-12T09:14:10.891Z,24.30
2022-08-12T09:15:35.480Z,23.90
2022-08-12T09:17:09.016Z,23.80
2022-08-12T09:18:43.553Z,23.60
2022-08-12T09:20:16.520Z,23.30
2022-08-12T09:21:54.501Z,23.30
2022-08-12T09:25:25.824Z,23.10
2022-08-12T09:26:58.849Z,23.00
2022-08-12T09:28:32.988Z,23.00
2022-08-12T09:30:11.093Z,22.90
2022-08-12T09:32:07.436Z,22.80
2022-08-12T09:34:26.772Z,22.70
2022-08-12T09:35:42.863Z,22.70
2022-08-12T09:37:19.219Z,22.90
2022-08-12T09:38:59.076Z,22.90
2022-08-12T09:41:01.798Z,23.00
2022-08-12T09:42:57.787Z,23.10
2022-08-12T09:45:17.760Z,23.30
2022-08-12T09:46:48.427Z,23.30
2022-08-12T09:48:22.002Z,23.30
2022-08-12T09:49:58.614Z,23.40
2022-08-12T09:51:37.976Z,23.40
2022-08-12T09:53:36.271Z,23.40
2022-08-12T09:56:06.553Z,23.30
2022-08-12T09:58:45.162Z,23.50
2022-08-12T09:59:06.873Z,23.70
2022-08-12T10:00:51.700Z,23.90
2022-08-12T10:02:43.866Z,23.90
2022-08-12T10:04:19.727Z,24.00
2022-08-12T10:06:19.191Z,23.60
2022-08-12T10:07:45.918Z,23.40
2022-08-12T10:09:18.065Z,23.30
2022-08-12T10:11:18.383Z,23.30
2022-08-12T10:13:35.216Z,23.40
2022-08-12T10:15:15.310Z,23.40
2022-08-12T10:17:03.357Z,23.50
2022-08-12T10:19:01.497Z,23.40
2022-08-12T10:20:33.669Z,23.50
2022-08-12T10:22:17.057Z,23.60
2022-08-12T10:23:51.675Z,23.70
2022-08-12T10:26:35.644Z,23.80
2022-08-12T10:28:04.465Z,24.00
2022-08-12T10:30:03.098Z,24.00
2022-08-12T10:32:19.470Z,23.90
2022-08-12T10:33:31.524Z,24.10
2022-08-12T10:35:04.621Z,24.10
2022-08-12T10:36:43.106Z,24.20
2022-08-12T10:38:39.320Z,24.20
2022-08-12T10:40:15.621Z,24.10
2022-08-12T10:42:11.671Z,24.30
2022-08-12T10:43:54.877Z,24.30
2022-08-12T10:45:31.199Z,24.30
2022-08-12T10:47:26.363Z,24.50
2022-08-12T10:49:05.682Z,24.40
2022-08-12T10:51:02.451Z,24.20
2022-08-12T10:52:41.359Z,24.10
2022-08-12T10:54:14.271Z,23.90
2022-08-12T10:55:48.017Z,24.00
2022-08-12T10:58:12.896Z,24.10
2022-08-12T11:00:29.169Z,24.20
2022-08-12T11:03:02.264Z,24.20
2022-08-12T11:04:27.576Z,24.20
2022-08-12T11:07:05.150Z,24.10
2022-08-12T11:07:08.936Z,24.10
2022-08-12T11:08:47.295Z,24.00
2022-08-12T11:10:19.723Z,24.20
2022-08-12T11:12:35.748Z,24.40
2022-08-12T11:13:59.837Z,24.40
2022-08-12T11:16:03.760Z,24.30
2022-08-12T11:17:43.710Z,24.30
2022-08-12T11:19:22.431Z,24.20
2022-08-12T11:20:57.893Z,24.30
2022-08-12T11:22:30.517Z,24.20
2022-08-12T11:24:05.553Z,24.20
2022-08-12T11:25:56.101Z,24.20
2022-08-12T11:27:30.259Z,24.50
2022-08-12T11:29:06.021Z,24.60
2022-08-12T11:30:54.931Z,25.10
2022-08-12T11:32:27.235Z,25.00
2022-08-12T11:34:06.320Z,25.10
2022-08-12T11:35:56.257Z,25.40
2022-08-12T11:37:58.411Z,25.20
2022-08-12T11:41:28.162Z,24.90
2022-08-12T11:43:18.855Z,24.90
2022-08-12T11:44:52.352Z,25.00
2022-08-12T11:46:24.528Z,24.90
2022-08-12T11:47:59.532Z,24.80
2022-08-12T11:49:32.856Z,24.70
2022-08-12T11:51:09.238Z,24.60
2022-08-12T11:53:59.323Z,24.50
2022-08-12T11:54:34.943Z,24.50
2022-08-12T11:56:08.068Z,24.40
2022-08-12T11:58:19.710Z,24.30
2022-08-12T12:02:04.555Z,24.70
2022-08-12T12:03:44.012Z,24.70
2022-08-12T12:05:19.899Z,24.80
2022-08-12T12:06:54.239Z,24.90
2022-08-12T12:08:38.164Z,24.80
2022-08-12T12:10:19.309Z,24.80
2022-08-12T12:11:51.676Z,24.70
2022-08-12T12:14:05.659Z,24.70
2022-08-12T12:15:24.868Z,24.70
2022-08-12T12:16:57.912Z,24.70
2022-08-12T12:18:32.543Z,24.60
2022-08-12T12:20:09.631Z,24.50
2022-08-12T12:21:47.047Z,24.70
2022-08-12T12:23:28.977Z,24.70
2022-08-12T12:25:12.651Z,24.60
2022-08-12T12:26:46.018Z,24.80
2022-08-12T12:28:37.509Z,24.80
2022-08-12T12:30:19.885Z,24.50
2022-08-12T12:32:10.126Z,24.50
2022-08-12T12:33:46.152Z,24.30
2022-08-12T12:36:18.385Z,24.30
2022-08-12T12:37:58.936Z,24.30
2022-08-12T12:39:15.365Z,24.40
2022-08-12T12:40:50.738Z,24.30
2022-08-12T12:42:49.784Z,24.50
2022-08-12T12:44:25.886Z,24.50
2022-08-12T12:46:02.748Z,24.50
2022-08-12T12:47:34.871Z,24.40
2022-08-12T12:49:10.906Z,24.40
2022-08-12T12:51:09.235Z,24.50
2022-08-12T12:52:42.719Z,24.50
2022-08-12T12:54:16.249Z,24.50
2022-08-12T12:55:51.039Z,24.50
2022-08-12T12:57:36.245Z,24.50
2022-08-12T12:59:35.000Z,24.50
2022-08-12T13:01:27.866Z,24.50
2022-08-12T13:03:03.177Z,24.60
2022-08-12T13:04:37.186Z,24.50
2022-08-12T13:06:09.792Z,24.50
2022-08-12T13:07:54.263Z,24.50
2022-08-12T13:09:27.378Z,24.50
2022-08-12T13:11:09.171Z,24.50
2022-08-12T13:12:42.618Z,24.70
2022-08-12T13:14:28.833Z,24.80
2022-08-12T13:16:02.904Z,24.70
2022-08-12T13:18:02.019Z,24.60
2022-08-12T13:19:37.722Z,24.60
2022-08-12T13:21:33.572Z,24.50
2022-08-12T13:23:37.038Z,24.60
2022-08-12T13:25:01.684Z,24.80
2022-08-12T13:26:35.169Z,25.00
2022-08-12T13:28:22.079Z,25.00
2022-08-12T13:30:03.823Z,24.80
2022-08-12T13:31:40.260Z,24.80
2022-08-12T13:34:33.656Z,24.80
2022-08-12T13:36:02.749Z,24.70
2022-08-12T13:37:17.678Z,24.70
2022-08-12T13:38:52.314Z,24.70
2022-08-12T13:40:39.968Z,24.60
2022-08-12T13:42:14.862Z,24.70
2022-08-12T13:43:47.095Z,24.50
2022-08-12T13:45:20.535Z,24.30
2022-08-12T13:46:58.973Z,24.40
2022-08-12T13:48:32.943Z,24.30
2022-08-12T13:50:06.575Z,24.40
2022-08-12T13:51:42.690Z,24.30
2022-08-12T13:53:24.338Z,24.30
2022-08-12T13:55:06.256Z,24.50
2022-08-12T13:56:39.048Z,24.50
2022-08-12T13:58:16.951Z,24.50
2022-08-12T13:59:55.440Z,24.50
2022-08-12T14:01:33.329Z,24.40
2022-08-12T14:03:06.253Z,24.50
2022-08-12T14:04:40.500Z,24.30
2022-08-12T14:06:15.506Z,24.30
2022-08-12T14:07:57.935Z,24.20
2022-08-12T14:09:56.997Z,24.10
2022-08-12T14:11:32.326Z,24.10
2022-08-12T14:14:02.537Z,24.00
2022-08-12T14:15:09.080Z,24.20
2022-08-12T14:16:48.774Z,24.20
2022-08-12T14:18:32.995Z,24.30
2022-08-12T14:20:15.408Z,24.30
2022-08-12T14:21:59.354Z,24.20
2022-08-12T14:24:05.685Z,24.10
2022-08-12T14:25:28.752Z,24.10
2022-08-12T14:27:08.764Z,24.00
2022-08-12T14:28:45.156Z,23.80
2022-08-12T14:30:30.455Z,23.80
2022-08-12T14:32:02.736Z,23.60
2022-08-12T14:33:49.023Z,23.60
2022-08-12T14:35:21.590Z,23.60
2022-08-12T14:36:57.721Z,23.80
2022-08-12T14:38:39.446Z,24.00
2022-08-12T14:40:18.248Z,24.30
2022-08-12T14:41:57.382Z,24.50
2022-08-12T14:43:44.372Z,24.50
2022-08-12T14:45:45.255Z,24.50
2022-08-12T14:47:19.815Z,24.40
2022-08-12T14:48:54.044Z,24.20
2022-08-12T14:50:57.406Z,24.00
2022-08-12T14:53:03.384Z,24.00
2022-08-12T14:56:58.812Z,23.90
2022-08-12T14:57:58.399Z,23.70
2022-08-12T14:59:58.201Z,23.60
2022-08-12T15:01:42.348Z,23.60
2022-08-12T15:03:15.499Z,23.70
2022-08-12T15:05:03.531Z,23.70
2022-08-12T15:06:44.580Z,23.70
2022-08-12T15:08:43.803Z,23.70
2022-08-12T15:10:32.372Z,23.80
2022-08-12T15:12:14.574Z,23.70
2022-08-12T15:13:49.383Z,23.70
2022-08-12T15:15:22.613Z,23.70
2022-08-12T15:16:54.847Z,23.70
2022-08-12T15:18:29.080Z,23.90
2022-08-12T15:20:31.222Z,23.90
2022-08-12T15:22:37.331Z,23.90
2022-08-12T15:23:55.585Z,24.00
2022-08-12T15:25:39.887Z,23.90
2022-08-12T15:27:12.562Z,23.90
2022-08-12T15:28:54.075Z,23.80
2022-08-12T15:30:30.517Z,23.80
2022-08-12T15:32:07.674Z,23.80
2022-08-12T15:33:50.093Z,23.70
2022-08-12T15:35:31.361Z,23.80
2022-08-12T15:38:08.729Z,23.80
2022-08-12T15:39:18.786Z,23.80
2022-08-12T15:40:53.422Z,23.70
2022-08-12T15:42:26.446Z,23.60
2022-08-12T15:44:37.373Z,23.50
2022-08-12T15:45:50.804Z,23.30
2022-08-12T15:47:48.279Z,23.20
2022-08-12T15:49:22.436Z,23.10
2022-08-12T15:50:55.572Z,23.10
2022-08-12T15:52:30.367Z,23.10
2022-08-12T15:54:05.408Z,23.10
2022-08-12T15:56:00.830Z,23.10
2022-08-12T15:57:34.122Z,23.20
2022-08-12T15:59:06.892Z,23.10
2022-08-12T16:00:41.108Z,23.10
2022-08-12T16:02:18.481Z,23.20
2022-08-12T16:04:00.274Z,23.10
2022-08-12T16:06:15.606Z,23.20
2022-08-12T16:07:39.564Z,23.20
2022-08-12T16:09:11.941Z,23.10
2022-08-12T16:10:45.724Z,23.20
2022-08-12T16:12:22.139Z,23.30
2022-08-12T16:13:54.556Z,23.30
2022-08-12T16:15:29.582Z,23.30
2022-08-12T16:17:09.095Z,23.40
2022-08-12T16:18:47.103Z,23.30
2022-08-12T16:20:33.115Z,23.20
2022-08-12T16:22:07.159Z,23.10
2022-08-12T16:23:55.335Z,23.00
2022-08-12T16:26:03.334Z,22.90
2022-08-12T16:27:27.844Z,22.70
2022-08-12T16:29:15.705Z,22.60
2022-08-12T16:30:49.957Z,22.50
2022-08-12T16:32:24.615Z,22.40
2022-08-12T16:34:04.356Z,22.40
2022-08-12T16:35:47.536Z,22.30
2022-08-12T16:37:22.208Z,22.30
2022-08-12T16:39:05.374Z,22.20
2022-08-12T16:40:46.239Z,22.20
2022-08-12T16:42:28.141Z,22.20
2022-08-12T16:44:01.104Z,22.20
2022-08-12T16:46:07.783Z,22.10
2022-08-12T16:47:58.846Z,22.20
2022-08-12T16:49:25.178Z,22.10
2022-08-12T16:51:01.942Z,22.10
2022-08-12T16:52:35.296Z,22.10
2022-08-12T16:54:14.087Z,22.10
2022-08-12T16:55:50.658Z,22.10
2022-08-12T16:57:34.682Z,22.00
2022-08-12T16:59:16.112Z,22.00
2022-08-12T17:00:51.946Z,22.00
2022-08-12T17:02:33.418Z,22.00
2022-08-12T17:04:09.483Z,22.00
2022-08-12T17:05:43.517Z,21.90
2022-08-12T17:07:19.523Z,21.90
2022-08-12T17:08:55.715Z,21.90
2022-08-12T17:10:36.501Z,21.90
2022-08-12T17:12:09.535Z,21.80
2022-08-12T17:13:41.712Z,21.80
2022-08-12T17:15:57.555Z,21.70
2022-08-12T17:17:26.393Z,21.60
2022-08-12T17:19:11.468Z,21.60
2022-08-12T17:20:47.432Z,21.50
2022-08-12T17:22:22.013Z,21.40
2022-08-12T17:23:55.407Z,21.40
2022-08-12T17:25:30.115Z,21.20
2022-08-12T17:27:15.740Z,21.10
2022-08-12T17:28:52.406Z,21.00
2022-08-12T17:30:27.572Z,21.00
2022-08-12T17:32:05.387Z,20.90
2022-08-12T17:33:43.289Z,20.90
2022-08-12T17:35:37.389Z,20.80
2022-08-12T17:37:16.709Z,20.80
2022-08-12T17:38:50.736Z,20.70
2022-08-12T17:40:36.293Z,20.70
2022-08-12T17:42:34.504Z,20.70
2022-08-12T17:44:03.196Z,20.60
2022-08-12T17:45:42.249Z,20.50
2022-08-12T17:47:31.080Z,20.50
2022-08-12T17:49:19.330Z,20.40
2022-08-12T17:51:15.750Z,20.30
2022-08-12T17:52:50.231Z,20.30
2022-08-12T17:54:23.691Z,20.20
2022-08-12T17:55:56.985Z,20.20
2022-08-12T17:57:32.852Z,20.10
2022-08-12T17:59:13.558Z,20.10
2022-08-12T18:01:01.686Z,20.10
2022-08-12T18:02:35.504Z,20.00
2022-08-12T18:04:22.218Z,20.00
2022-08-12T18:06:01.578Z,19.90
2022-08-12T18:07:39.551Z,19.90
2022-08-12T18:09:14.911Z,19.80
2022-08-12T18:11:11.826Z,19.80
2022-08-12T18:12:51.139Z,19.80
2022-08-12T18:14:28.022Z,19.70
2022-08-12T18:16:06.798Z,19.70
2022-08-12T18:17:47.312Z,19.60
2022-08-12T18:19:19.665Z,19.60
2022-08-12T18:20:52.335Z,19.60
2022-08-12T18:22:31.531Z,19.60
2022-08-12T18:24:05.119Z,19.50
2022-08-12T18:26:17.410Z,19.50
2022-08-12T18:27:50.236Z,19.40
2022-08-12T18:29:43.529Z,19.40
2022-08-12T18:31:19.662Z,19.40
2022-08-12T18:33:04.619Z,19.30
2022-08-12T18:34:40.279Z,19.30
2022-08-12T18:36:22.300Z,19.20
2022-08-12T18:37:57.253Z,19.20
2022-08-12T18:39:49.697Z,19.10
2022-08-12T18:41:33.491Z,19.10
2022-08-12T18:43:06.388Z,19.00
2022-08-12T18:44:48.347Z,19.00
2022-08-12T18:46:32.180Z,19.00
2022-08-12T18:48:05.320Z,18.90
2022-08-12T18:49:39.943Z,18.90
2022-08-12T18:51:21.870Z,18.90
2022-08-12T18:54:06.977Z,18.80
2022-08-12T18:55:08.127Z,18.80
2022-08-12T18:56:43.005Z,18.70
2022-08-12T18:58:20.534Z,18.70
2022-08-12T19:00:00.816Z,18.70
2022-08-12T19:02:17.878Z,18.70
2022-08-12T19:03:39.751Z,18.70
2022-08-12T19:05:17.540Z,18.60
2022-08-12T19:06:55.294Z,18.60
2022-08-12T19:08:30.020Z,18.60
2022-08-12T19:10:03.816Z,18.60
2022-08-12T19:11:55.825Z,18.60
2022-08-12T19:13:49.283Z,18.50
2022-08-12T19:15:24.156Z,18.50
2022-08-12T19:17:04.932Z,18.50
2022-08-12T19:18:40.960Z,18.40
2022-08-12T19:20:18.943Z,18.40
2022-08-12T19:21:57.000Z,18.40
2022-08-12T19:23:35.365Z,18.40
2022-08-12T19:25:24.060Z,18.40
2022-08-12T19:27:21.441Z,18.40
2022-08-12T19:28:56.672Z,18.30
2022-08-12T19:30:52.690Z,18.30
2022-08-12T19:32:31.350Z,18.30
2022-08-12T19:34:26.120Z,18.30
2022-08-12T19:36:24.481Z,18.20
2022-08-12T19:38:04.307Z,18.20
2022-08-12T19:40:10.160Z,18.10
2022-08-12T19:41:42.843Z,18.10
2022-08-12T19:43:59.402Z,18.10
2022-08-12T19:45:42.284Z,18.00
2022-08-12T19:47:23.968Z,18.00
2022-08-12T19:48:58.730Z,18.00
2022-08-12T19:50:37.227Z,18.00
2022-08-12T19:52:11.747Z,18.00
2022-08-12T19:53:57.247Z,18.00
2022-08-12T19:55:35.243Z,18.10
2022-08-12T19:57:11.991Z,18.10
2022-08-12T19:58:46.396Z,18.10
2022-08-12T20:00:22.400Z,18.10
2022-08-12T20:02:02.320Z,18.10
2022-08-12T20:03:38.125Z,18.10
2022-08-12T20:06:03.279Z,18.10
2022-08-12T20:07:23.811Z,18.10
2022-08-12T20:08:57.381Z,18.10
2022-08-12T20:10:36.185Z,18.10
2022-08-12T20:12:18.031Z,18.10
2022-08-12T20:14:01.053Z,18.10
2022-08-12T20:15:44.329Z,18.10
2022-08-12T20:17:23.451Z,18.20
2022-08-12T20:18:57.885Z,18.20
2022-08-12T20:20:30.201Z,18.20
2022-08-12T20:22:14.288Z,18.20
2022-08-12T20:23:59.543Z,18.20
2022-08-12T20:25:52.168Z,18.20
2022-08-12T20:27:29.605Z,18.30
2022-08-12T20:29:19.074Z,18.30
2022-08-12T20:30:59.870Z,18.30
2022-08-12T20:32:48.017Z,18.30
2022-08-12T20:34:22.631Z,18.40
2022-08-12T20:36:13.375Z,18.40
2022-08-12T20:38:06.885Z,18.40
2022-08-12T20:39:53.307Z,18.40
2022-08-12T20:41:33.428Z,18.40
2022-08-12T20:43:06.412Z,18.40
2022-08-12T20:44:41.358Z,18.40
2022-08-12T20:46:13.723Z,18.40
2022-08-12T20:47:54.433Z,18.50
2022-08-12T20:49:41.042Z,18.50
2022-08-12T20:51:19.224Z,18.50
2022-08-12T20:52:51.995Z,18.40
2022-08-12T20:54:32.630Z,18.50
2022-08-12T20:56:30.541Z,18.50
2022-08-12T20:58:09.795Z,18.50
2022-08-12T20:59:47.894Z,18.50
2022-08-12T21:01:28.910Z,18.50
2022-08-12T21:03:21.335Z,18.50
2022-08-12T21:05:19.977Z,18.50
2022-08-12T21:07:04.472Z,18.50
2022-08-12T21:08:43.779Z,18.50
2022-08-12T21:10:16.166Z,18.50
2022-08-12T21:11:53.695Z,18.50
2022-08-12T21:13:27.073Z,18.50
2022-08-12T21:15:23.037Z,18.50
2022-08-12T21:17:05.617Z,18.50
2022-08-12T21:18:38.222Z,18.40
2022-08-12T21:20:15.553Z,18.40
2022-08-12T21:21:50.106Z,18.40
2022-08-12T21:23:23.770Z,18.30
2022-08-12T21:24:57.814Z,18.30
2022-08-12T21:26:31.174Z,18.30
2022-08-12T21:28:06.725Z,18.30
2022-08-12T21:29:55.049Z,18.30
2022-08-12T21:32:47.390Z,18.20
2022-08-12T21:33:23.503Z,18.20
2022-08-12T21:35:04.887Z,18.20
2022-08-12T21:36:48.596Z,18.10
2022-08-12T21:38:21.120Z,18.10
2022-08-12T21:39:56.827Z,18.10
2022-08-12T21:41:36.549Z,18.10
2022-08-12T21:43:09.851Z,18.10
2022-08-12T21:45:48.036Z,18.10
2022-08-12T21:46:35.643Z,18.00
2022-08-12T21:48:09.146Z,18.10
2022-08-12T21:49:54.261Z,18.10
2022-08-12T21:51:49.025Z,18.10
2022-08-12T21:53:20.916Z,18.10
2022-08-12T21:54:56.468Z,18.10
2022-08-12T21:56:34.895Z,18.10
2022-08-12T21:58:16.770Z,18.00
2022-08-12T21:59:49.324Z,18.00
2022-08-12T22:01:26.341Z,18.00